sensor_id;sensor_type;location;lat;lon;timestamp;P1;durP1;ratioP1;P2;durP2;ratioP2
50733;SDS011;36701;51.798;19.474;2022-09-09T00:04:41;12.45;;;6.53;;
50733;SDS011;36701;51.798;19.474;2022-09-09T00:07:21;8.70;;;5.40;;
50733;SDS011;36701;51.798;19.474;2022-09-09T00:10:14;14.95;;;6.93;;
50733;SDS011;36701;51.798;19.474;2022-09-09T00:16:17;11.18;;;6.32;;
50733;SDS011;36701;51.798;19.474;2022-09-09T00:22:06;16.83;;;7.65;;
50733;SDS011;36701;51.798;19.474;2022-09-09T00:27:50;14.93;;;7.18;;
50733;SDS011;36701;51.798;19.474;2022-09-09T00:30:23;15.48;;;7.20;;
50733;SDS011;36701;51.798;19.474;2022-09-09T00:32:55;15.90;;;7.03;;
50733;SDS011;36701;51.798;19.474;2022-09-09T00:35:36;15.75;;;6.55;;
50733;SDS011;36701;51.798;19.474;2022-09-09T00:38:15;14.60;;;7.70;;
50733;SDS011;36701;51.798;19.474;2022-09-09T00:40:48;15.13;;;7.93;;
50733;SDS011;36701;51.798;19.474;2022-09-09T00:45:56;10.95;;;7.22;;
50733;SDS011;36701;51.798;19.474;2022-09-09T00:48:30;15.52;;;7.53;;
50733;SDS011;36701;51.798;19.474;2022-09-09T00:51:09;12.35;;;6.22;;
50733;SDS011;36701;51.798;19.474;2022-09-09T00:54:10;12.50;;;6.82;;
50733;SDS011;36701;51.798;19.474;2022-09-09T00:56:57;16.10;;;7.28;;
50733;SDS011;36701;51.798;19.474;2022-09-09T00:59:35;16.15;;;6.90;;
50733;SDS011;36701;51.798;19.474;2022-09-09T01:02:17;14.65;;;6.43;;
50733;SDS011;36701;51.798;19.474;2022-09-09T01:04:54;21.55;;;7.68;;
50733;SDS011;36701;51.798;19.474;2022-09-09T01:07:27;11.45;;;6.82;;
50733;SDS011;36701;51.798;19.474;2022-09-09T01:10:00;12.37;;;6.80;;
50733;SDS011;36701;51.798;19.474;2022-09-09T01:12:41;11.12;;;6.18;;
50733;SDS011;36701;51.798;19.474;2022-09-09T01:15:11;16.25;;;7.25;;
50733;SDS011;36701;51.798;19.474;2022-09-09T01:20:15;15.57;;;7.18;;
50733;SDS011;36701;51.798;19.474;2022-09-09T01:28:12;10.48;;;6.62;;
50733;SDS011;36701;51.798;19.474;2022-09-09T01:30:43;16.10;;;7.62;;
50733;SDS011;36701;51.798;19.474;2022-09-09T01:33:12;14.27;;;7.15;;
50733;SDS011;36701;51.798;19.474;2022-09-09T01:38:26;17.15;;;7.93;;
50733;SDS011;36701;51.798;19.474;2022-09-09T01:40:55;11.30;;;7.03;;
50733;SDS011;36701;51.798;19.474;2022-09-09T01:43:22;12.48;;;7.50;;
50733;SDS011;36701;51.798;19.474;2022-09-09T01:45:52;12.45;;;6.60;;
50733;SDS011;36701;51.798;19.474;2022-09-09T01:48:22;17.98;;;8.07;;
50733;SDS011;36701;51.798;19.474;2022-09-09T01:50:50;15.90;;;8.27;;
50733;SDS011;36701;51.798;19.474;2022-09-09T01:53:18;20.08;;;7.50;;
50733;SDS011;36701;51.798;19.474;2022-09-09T01:55:51;16.77;;;9.02;;
50733;SDS011;36701;51.798;19.474;2022-09-09T02:04:05;14.68;;;8.10;;
50733;SDS011;36701;51.798;19.474;2022-09-09T02:06:50;20.65;;;9.38;;
50733;SDS011;36701;51.798;19.474;2022-09-09T02:09:23;24.02;;;8.88;;
50733;SDS011;36701;51.798;19.474;2022-09-09T02:11:55;21.17;;;8.32;;
50733;SDS011;36701;51.798;19.474;2022-09-09T02:14:34;14.73;;;7.60;;
50733;SDS011;36701;51.798;19.474;2022-09-09T02:17:08;15.35;;;8.60;;
50733;SDS011;36701;51.798;19.474;2022-09-09T02:22:12;13.85;;;8.65;;
50733;SDS011;36701;51.798;19.474;2022-09-09T02:24:40;20.08;;;9.32;;
50733;SDS011;36701;51.798;19.474;2022-09-09T02:27:07;16.35;;;9.15;;
50733;SDS011;36701;51.798;19.474;2022-09-09T02:29:38;14.07;;;9.38;;
50733;SDS011;36701;51.798;19.474;2022-09-09T02:32:14;15.48;;;8.95;;
50733;SDS011;36701;51.798;19.474;2022-09-09T02:34:45;19.12;;;9.00;;
50733;SDS011;36701;51.798;19.474;2022-09-09T02:37:17;18.00;;;9.63;;
50733;SDS011;36701;51.798;19.474;2022-09-09T02:39:46;16.37;;;9.70;;
50733;SDS011;36701;51.798;19.474;2022-09-09T02:42:14;17.30;;;10.02;;
50733;SDS011;36701;51.798;19.474;2022-09-09T02:44:42;20.17;;;9.35;;
50733;SDS011;36701;51.798;19.474;2022-09-09T02:55:38;23.20;;;9.13;;
50733;SDS011;36701;51.798;19.474;2022-09-09T02:58:09;22.92;;;10.63;;
50733;SDS011;36701;51.798;19.474;2022-09-09T03:00:40;18.00;;;10.73;;
50733;SDS011;36701;51.798;19.474;2022-09-09T03:03:07;25.80;;;10.88;;
50733;SDS011;36701;51.798;19.474;2022-09-09T03:05:36;16.65;;;10.88;;
50733;SDS011;36701;51.798;19.474;2022-09-09T03:08:04;22.92;;;10.98;;
50733;SDS011;36701;51.798;19.474;2022-09-09T03:10:32;26.37;;;11.63;;
50733;SDS011;36701;51.798;19.474;2022-09-09T03:12:59;28.60;;;14.10;;
50733;SDS011;36701;51.798;19.474;2022-09-09T03:15:26;27.45;;;12.90;;
50733;SDS011;36701;51.798;19.474;2022-09-09T03:17:57;25.02;;;12.35;;
50733;SDS011;36701;51.798;19.474;2022-09-09T03:20:25;24.45;;;11.45;;
50733;SDS011;36701;51.798;19.474;2022-09-09T03:22:54;28.50;;;12.75;;
50733;SDS011;36701;51.798;19.474;2022-09-09T03:25:21;36.80;;;13.07;;
50733;SDS011;36701;51.798;19.474;2022-09-09T03:27:50;25.65;;;12.80;;
50733;SDS011;36701;51.798;19.474;2022-09-09T03:30:21;23.40;;;12.80;;
50733;SDS011;36701;51.798;19.474;2022-09-09T03:32:48;32.70;;;13.13;;
50733;SDS011;36701;51.798;19.474;2022-09-09T03:35:15;25.67;;;13.30;;
50733;SDS011;36701;51.798;19.474;2022-09-09T03:37:43;20.45;;;13.13;;
50733;SDS011;36701;51.798;19.474;2022-09-09T03:40:10;25.10;;;11.93;;
50733;SDS011;36701;51.798;19.474;2022-09-09T03:42:37;26.55;;;12.73;;
50733;SDS011;36701;51.798;19.474;2022-09-09T03:45:07;21.25;;;13.02;;
50733;SDS011;36701;51.798;19.474;2022-09-09T03:47:36;23.77;;;13.48;;
50733;SDS011;36701;51.798;19.474;2022-09-09T03:50:03;21.73;;;13.43;;
50733;SDS011;36701;51.798;19.474;2022-09-09T03:52:38;28.10;;;13.95;;
50733;SDS011;36701;51.798;19.474;2022-09-09T03:55:07;29.55;;;13.25;;
50733;SDS011;36701;51.798;19.474;2022-09-09T03:57:34;20.45;;;12.75;;
50733;SDS011;36701;51.798;19.474;2022-09-09T04:00:05;28.45;;;13.05;;
50733;SDS011;36701;51.798;19.474;2022-09-09T04:02:42;25.62;;;13.20;;
50733;SDS011;36701;51.798;19.474;2022-09-09T04:05:10;30.40;;;13.62;;
50733;SDS011;36701;51.798;19.474;2022-09-09T04:07:37;26.20;;;13.75;;
50733;SDS011;36701;51.798;19.474;2022-09-09T04:10:04;20.70;;;13.48;;
50733;SDS011;36701;51.798;19.474;2022-09-09T04:12:31;26.70;;;13.38;;
50733;SDS011;36701;51.798;19.474;2022-09-09T04:14:58;27.95;;;13.32;;
50733;SDS011;36701;51.798;19.474;2022-09-09T04:17:25;21.25;;;13.73;;
50733;SDS011;36701;51.798;19.474;2022-09-09T04:19:58;23.30;;;13.35;;
50733;SDS011;36701;51.798;19.474;2022-09-09T04:22:24;28.35;;;12.48;;
50733;SDS011;36701;51.798;19.474;2022-09-09T04:24:51;22.10;;;12.45;;
50733;SDS011;36701;51.798;19.474;2022-09-09T04:27:18;23.85;;;14.32;;
50733;SDS011;36701;51.798;19.474;2022-09-09T04:29:45;29.23;;;13.48;;
50733;SDS011;36701;51.798;19.474;2022-09-09T04:32:12;24.00;;;13.60;;
50733;SDS011;36701;51.798;19.474;2022-09-09T04:34:39;30.95;;;14.13;;
50733;SDS011;36701;51.798;19.474;2022-09-09T04:37:08;32.05;;;14.05;;
50733;SDS011;36701;51.798;19.474;2022-09-09T04:39:38;32.53;;;14.35;;
50733;SDS011;36701;51.798;19.474;2022-09-09T04:42:05;31.15;;;15.05;;
50733;SDS011;36701;51.798;19.474;2022-09-09T04:44:31;32.40;;;14.35;;
50733;SDS011;36701;51.798;19.474;2022-09-09T04:47:05;52.78;;;15.43;;
50733;SDS011;36701;51.798;19.474;2022-09-09T04:49:32;31.90;;;14.27;;
50733;SDS011;36701;51.798;19.474;2022-09-09T04:51:58;36.13;;;16.98;;
50733;SDS011;36701;51.798;19.474;2022-09-09T04:54:25;30.02;;;15.45;;
50733;SDS011;36701;51.798;19.474;2022-09-09T04:56:51;52.28;;;15.90;;
50733;SDS011;36701;51.798;19.474;2022-09-09T04:59:18;48.60;;;16.35;;
50733;SDS011;36701;51.798;19.474;2022-09-09T05:01:45;43.90;;;16.02;;
50733;SDS011;36701;51.798;19.474;2022-09-09T05:04:12;84.15;;;17.40;;
50733;SDS011;36701;51.798;19.474;2022-09-09T05:06:39;57.05;;;15.27;;
50733;SDS011;36701;51.798;19.474;2022-09-09T05:09:06;56.60;;;15.75;;
50733;SDS011;36701;51.798;19.474;2022-09-09T05:11:33;94.10;;;16.08;;
50733;SDS011;36701;51.798;19.474;2022-09-09T05:14:04;108.17;;;17.20;;
50733;SDS011;36701;51.798;19.474;2022-09-09T05:16:30;113.53;;;16.87;;
50733;SDS011;36701;51.798;19.474;2022-09-09T05:18:57;170.45;;;17.02;;
50733;SDS011;36701;51.798;19.474;2022-09-09T05:21:25;171.27;;;19.90;;
50733;SDS011;36701;51.798;19.474;2022-09-09T05:23:58;191.82;;;17.87;;
50733;SDS011;36701;51.798;19.474;2022-09-09T05:26:26;167.77;;;21.30;;
50733;SDS011;36701;51.798;19.474;2022-09-09T05:28:52;156.80;;;19.80;;
50733;SDS011;36701;51.798;19.474;2022-09-09T05:31:19;106.50;;;16.35;;
50733;SDS011;36701;51.798;19.474;2022-09-09T05:33:47;147.23;;;17.73;;
50733;SDS011;36701;51.798;19.474;2022-09-09T05:36:19;160.60;;;20.25;;
50733;SDS011;36701;51.798;19.474;2022-09-09T05:38:47;139.45;;;19.33;;
50733;SDS011;36701;51.798;19.474;2022-09-09T05:41:15;113.32;;;17.40;;
50733;SDS011;36701;51.798;19.474;2022-09-09T05:43:43;120.97;;;19.25;;
50733;SDS011;36701;51.798;19.474;2022-09-09T05:46:12;153.48;;;18.37;;
50733;SDS011;36701;51.798;19.474;2022-09-09T05:48:41;143.37;;;20.05;;
50733;SDS011;36701;51.798;19.474;2022-09-09T05:51:12;103.40;;;17.95;;
50733;SDS011;36701;51.798;19.474;2022-09-09T05:53:45;155.32;;;19.67;;
50733;SDS011;36701;51.798;19.474;2022-09-09T05:56:18;142.98;;;19.87;;
50733;SDS011;36701;51.798;19.474;2022-09-09T05:58:50;142.05;;;18.37;;
50733;SDS011;36701;51.798;19.474;2022-09-09T06:01:51;136.50;;;19.48;;
50733;SDS011;36701;51.798;19.474;2022-09-09T06:04:14;148.75;;;18.80;;
50733;SDS011;36701;51.798;19.474;2022-09-09T06:06:40;113.88;;;17.87;;
50733;SDS011;36701;51.798;19.474;2022-09-09T06:09:08;81.03;;;19.27;;
50733;SDS011;36701;51.798;19.474;2022-09-09T06:11:38;87.03;;;19.85;;
50733;SDS011;36701;51.798;19.474;2022-09-09T06:14:05;77.35;;;19.48;;
50733;SDS011;36701;51.798;19.474;2022-09-09T06:16:32;116.82;;;18.37;;
50733;SDS011;36701;51.798;19.474;2022-09-09T06:19:00;80.30;;;16.92;;
50733;SDS011;36701;51.798;19.474;2022-09-09T06:21:30;172.60;;;24.48;;
50733;SDS011;36701;51.798;19.474;2022-09-09T06:24:03;72.12;;;18.25;;
50733;SDS011;36701;51.798;19.474;2022-09-09T06:26:32;124.32;;;19.20;;
50733;SDS011;36701;51.798;19.474;2022-09-09T06:29:00;90.07;;;16.50;;
50733;SDS011;36701;51.798;19.474;2022-09-09T06:31:30;105.80;;;17.87;;
50733;SDS011;36701;51.798;19.474;2022-09-09T06:34:00;81.90;;;18.12;;
50733;SDS011;36701;51.798;19.474;2022-09-09T06:36:29;74.78;;;17.37;;
50733;SDS011;36701;51.798;19.474;2022-09-09T06:38:58;161.27;;;18.65;;
50733;SDS011;36701;51.798;19.474;2022-09-09T06:41:26;49.03;;;18.95;;
50733;SDS011;36701;51.798;19.474;2022-09-09T06:43:54;35.25;;;17.05;;
50733;SDS011;36701;51.798;19.474;2022-09-09T06:46:28;66.28;;;16.90;;
50733;SDS011;36701;51.798;19.474;2022-09-09T06:48:59;62.05;;;16.40;;
50733;SDS011;36701;51.798;19.474;2022-09-09T06:51:28;54.30;;;18.02;;
50733;SDS011;36701;51.798;19.474;2022-09-09T06:54:01;40.83;;;15.55;;
50733;SDS011;36701;51.798;19.474;2022-09-09T06:56:33;39.60;;;15.63;;
50733;SDS011;36701;51.798;19.474;2022-09-09T07:01:36;34.83;;;14.93;;
50733;SDS011;36701;51.798;19.474;2022-09-09T07:04:08;33.05;;;15.27;;
50733;SDS011;36701;51.798;19.474;2022-09-09T07:06:36;31.23;;;15.20;;
50733;SDS011;36701;51.798;19.474;2022-09-09T07:09:06;29.12;;;13.43;;
50733;SDS011;36701;51.798;19.474;2022-09-09T07:11:41;32.22;;;13.62;;
50733;SDS011;36701;51.798;19.474;2022-09-09T07:14:10;25.50;;;14.25;;
50733;SDS011;36701;51.798;19.474;2022-09-09T07:16:41;29.95;;;15.20;;
50733;SDS011;36701;51.798;19.474;2022-09-09T07:19:09;27.70;;;14.30;;
50733;SDS011;36701;51.798;19.474;2022-09-09T07:21:38;24.40;;;14.25;;
50733;SDS011;36701;51.798;19.474;2022-09-09T07:24:06;28.50;;;14.30;;
50733;SDS011;36701;51.798;19.474;2022-09-09T07:26:37;22.90;;;13.68;;
50733;SDS011;36701;51.798;19.474;2022-09-09T07:29:05;31.62;;;13.48;;
50733;SDS011;36701;51.798;19.474;2022-09-09T07:31:39;21.85;;;12.70;;
50733;SDS011;36701;51.798;19.474;2022-09-09T07:34:07;20.73;;;11.98;;
50733;SDS011;36701;51.798;19.474;2022-09-09T07:36:34;18.45;;;11.63;;
50733;SDS011;36701;51.798;19.474;2022-09-09T07:39:08;21.30;;;12.02;;
50733;SDS011;36701;51.798;19.474;2022-09-09T07:41:41;20.50;;;12.15;;
50733;SDS011;36701;51.798;19.474;2022-09-09T07:44:10;22.92;;;12.48;;
50733;SDS011;36701;51.798;19.474;2022-09-09T07:46:40;20.12;;;13.55;;
50733;SDS011;36701;51.798;19.474;2022-09-09T07:49:07;19.50;;;12.02;;
50733;SDS011;36701;51.798;19.474;2022-09-09T07:51:36;24.98;;;12.90;;
50733;SDS011;36701;51.798;19.474;2022-09-09T07:54:06;18.95;;;11.05;;
50733;SDS011;36701;51.798;19.474;2022-09-09T07:56:36;14.25;;;10.23;;
50733;SDS011;36701;51.798;19.474;2022-09-09T07:59:03;16.87;;;10.90;;
50733;SDS011;36701;51.798;19.474;2022-09-09T08:01:34;15.18;;;9.77;;
50733;SDS011;36701;51.798;19.474;2022-09-09T08:04:08;18.80;;;10.35;;
50733;SDS011;36701;51.798;19.474;2022-09-09T08:06:43;24.70;;;11.93;;
50733;SDS011;36701;51.798;19.474;2022-09-09T08:09:13;16.33;;;11.07;;
50733;SDS011;36701;51.798;19.474;2022-09-09T08:11:41;16.83;;;11.00;;
50733;SDS011;36701;51.798;19.474;2022-09-09T08:14:08;25.05;;;11.35;;
50733;SDS011;36701;51.798;19.474;2022-09-09T08:16:37;19.65;;;11.73;;
50733;SDS011;36701;51.798;19.474;2022-09-09T08:19:06;20.23;;;11.45;;
50733;SDS011;36701;51.798;19.474;2022-09-09T08:21:34;18.33;;;11.10;;
50733;SDS011;36701;51.798;19.474;2022-09-09T08:24:04;22.55;;;10.82;;
50733;SDS011;36701;51.798;19.474;2022-09-09T08:26:32;14.55;;;9.18;;
50733;SDS011;36701;51.798;19.474;2022-09-09T08:29:07;14.27;;;8.40;;
50733;SDS011;36701;51.798;19.474;2022-09-09T08:31:37;14.43;;;8.80;;
50733;SDS011;36701;51.798;19.474;2022-09-09T08:34:06;10.95;;;7.82;;
50733;SDS011;36701;51.798;19.474;2022-09-09T08:36:35;11.73;;;8.77;;
50733;SDS011;36701;51.798;19.474;2022-09-09T08:39:11;11.32;;;8.05;;
50733;SDS011;36701;51.798;19.474;2022-09-09T08:50:26;7.47;;;6.45;;
50733;SDS011;36701;51.798;19.474;2022-09-09T08:53:05;7.50;;;5.80;;
50733;SDS011;36701;51.798;19.474;2022-09-09T08:55:47;8.65;;;6.78;;
50733;SDS011;36701;51.798;19.474;2022-09-09T08:58:18;10.15;;;6.97;;
50733;SDS011;36701;51.798;19.474;2022-09-09T09:06:26;12.57;;;7.80;;
50733;SDS011;36701;51.798;19.474;2022-09-09T09:11:24;12.52;;;8.43;;
50733;SDS011;36701;51.798;19.474;2022-09-09T09:13:53;12.85;;;9.02;;
50733;SDS011;36701;51.798;19.474;2022-09-09T09:19:01;8.60;;;6.97;;
50733;SDS011;36701;51.798;19.474;2022-09-09T09:24:16;8.02;;;5.10;;
50733;SDS011;36701;51.798;19.474;2022-09-09T09:26:46;5.85;;;4.60;;
50733;SDS011;36701;51.798;19.474;2022-09-09T09:29:16;5.25;;;4.25;;
50733;SDS011;36701;51.798;19.474;2022-09-09T09:31:52;7.50;;;5.12;;
50733;SDS011;36701;51.798;19.474;2022-09-09T09:34:22;6.18;;;4.55;;
50733;SDS011;36701;51.798;19.474;2022-09-09T09:36:54;7.93;;;4.93;;
50733;SDS011;36701;51.798;19.474;2022-09-09T09:39:27;4.85;;;4.35;;
50733;SDS011;36701;51.798;19.474;2022-09-09T09:41:58;12.57;;;4.95;;
50733;SDS011;36701;51.798;19.474;2022-09-09T09:44:41;9.88;;;5.72;;
50733;SDS011;36701;51.798;19.474;2022-09-09T09:47:17;6.22;;;5.35;;
50733;SDS011;36701;51.798;19.474;2022-09-09T09:49:52;7.57;;;5.55;;
50733;SDS011;36701;51.798;19.474;2022-09-09T09:52:21;11.50;;;6.97;;
50733;SDS011;36701;51.798;19.474;2022-09-09T09:54:59;9.90;;;7.30;;
50733;SDS011;36701;51.798;19.474;2022-09-09T09:57:29;12.82;;;7.20;;
50733;SDS011;36701;51.798;19.474;2022-09-09T10:00:02;11.90;;;7.00;;
50733;SDS011;36701;51.798;19.474;2022-09-09T10:02:41;9.43;;;7.22;;
50733;SDS011;36701;51.798;19.474;2022-09-09T10:05:15;8.82;;;7.15;;
50733;SDS011;36701;51.798;19.474;2022-09-09T10:07:43;8.75;;;6.68;;
50733;SDS011;36701;51.798;19.474;2022-09-09T10:10:25;8.05;;;5.90;;
50733;SDS011;36701;51.798;19.474;2022-09-09T10:23:51;7.03;;;5.75;;
50733;SDS011;36701;51.798;19.474;2022-09-09T10:26:39;9.85;;;5.78;;
50733;SDS011;36701;51.798;19.474;2022-09-09T10:37:02;8.23;;;5.40;;
50733;SDS011;36701;51.798;19.474;2022-09-09T10:39:38;6.65;;;4.78;;
50733;SDS011;36701;51.798;19.474;2022-09-09T10:42:14;10.98;;;5.45;;
50733;SDS011;36701;51.798;19.474;2022-09-09T10:44:49;9.13;;;5.03;;
50733;SDS011;36701;51.798;19.474;2022-09-09T10:55:33;6.70;;;5.60;;
50733;SDS011;36701;51.798;19.474;2022-09-09T10:58:04;6.18;;;4.87;;
50733;SDS011;36701;51.798;19.474;2022-09-09T11:00:42;6.12;;;4.95;;
50733;SDS011;36701;51.798;19.474;2022-09-09T11:03:46;7.93;;;5.32;;
50733;SDS011;36701;51.798;19.474;2022-09-09T11:06:12;16.52;;;7.22;;
50733;SDS011;36701;51.798;19.474;2022-09-09T11:08:43;14.57;;;4.65;;
50733;SDS011;36701;51.798;19.474;2022-09-09T11:19:28;8.77;;;4.60;;
50733;SDS011;36701;51.798;19.474;2022-09-09T11:22:01;11.95;;;6.80;;
50733;SDS011;36701;51.798;19.474;2022-09-09T11:24:38;5.03;;;3.90;;
50733;SDS011;36701;51.798;19.474;2022-09-09T11:27:18;6.78;;;4.80;;
50733;SDS011;36701;51.798;19.474;2022-09-09T11:30:15;10.77;;;5.22;;
50733;SDS011;36701;51.798;19.474;2022-09-09T11:35:47;55.60;;;27.02;;
50733;SDS011;36701;51.798;19.474;2022-09-09T11:40:56;7.72;;;4.70;;
50733;SDS011;36701;51.798;19.474;2022-09-09T11:43:29;7.47;;;3.83;;
50733;SDS011;36701;51.798;19.474;2022-09-09T11:46:04;4.97;;;3.55;;
50733;SDS011;36701;51.798;19.474;2022-09-09T11:48:34;3.78;;;3.47;;
50733;SDS011;36701;51.798;19.474;2022-09-09T11:51:09;3.80;;;3.45;;
50733;SDS011;36701;51.798;19.474;2022-09-09T11:53:54;3.28;;;3.00;;
50733;SDS011;36701;51.798;19.474;2022-09-09T11:56:42;4.00;;;3.40;;
50733;SDS011;36701;51.798;19.474;2022-09-09T11:59:29;5.10;;;3.58;;
50733;SDS011;36701;51.798;19.474;2022-09-09T12:12:45;2.90;;;1.87;;
50733;SDS011;36701;51.798;19.474;2022-09-09T12:17:42;2.37;;;2.25;;
50733;SDS011;36701;51.798;19.474;2022-09-09T12:20:18;2.15;;;2.05;;
50733;SDS011;36701;51.798;19.474;2022-09-09T12:28:18;2.65;;;2.28;;
50733;SDS011;36701;51.798;19.474;2022-09-09T12:33:44;2.75;;;2.50;;
50733;SDS011;36701;51.798;19.474;2022-09-09T12:36:20;4.32;;;3.55;;
50733;SDS011;36701;51.798;19.474;2022-09-09T12:38:51;2.60;;;2.40;;
50733;SDS011;36701;51.798;19.474;2022-09-09T12:41:25;5.55;;;2.00;;
50733;SDS011;36701;51.798;19.474;2022-09-09T12:44:05;4.43;;;2.25;;
50733;SDS011;36701;51.798;19.474;2022-09-09T12:46:35;3.78;;;2.20;;
50733;SDS011;36701;51.798;19.474;2022-09-09T12:49:21;2.70;;;2.50;;
50733;SDS011;36701;51.798;19.474;2022-09-09T12:51:53;2.53;;;2.33;;
50733;SDS011;36701;51.798;19.474;2022-09-09T12:54:20;5.57;;;2.70;;
50733;SDS011;36701;51.798;19.474;2022-09-09T12:56:47;3.60;;;2.45;;
50733;SDS011;36701;51.798;19.474;2022-09-09T12:59:26;4.50;;;3.08;;
50733;SDS011;36701;51.798;19.474;2022-09-09T13:02:01;2.72;;;2.40;;
50733;SDS011;36701;51.798;19.474;2022-09-09T13:04:28;5.00;;;2.83;;
50733;SDS011;36701;51.798;19.474;2022-09-09T13:07:04;3.72;;;2.70;;
50733;SDS011;36701;51.798;19.474;2022-09-09T13:09:33;2.83;;;2.60;;
50733;SDS011;36701;51.798;19.474;2022-09-09T13:12:05;5.93;;;2.80;;
50733;SDS011;36701;51.798;19.474;2022-09-09T13:14:39;2.97;;;2.78;;
50733;SDS011;36701;51.798;19.474;2022-09-09T13:17:22;4.22;;;3.75;;
50733;SDS011;36701;51.798;19.474;2022-09-09T13:19:51;4.85;;;3.17;;
50733;SDS011;36701;51.798;19.474;2022-09-09T13:22:34;3.92;;;3.47;;
50733;SDS011;36701;51.798;19.474;2022-09-09T13:25:05;4.95;;;3.00;;
50733;SDS011;36701;51.798;19.474;2022-09-09T13:27:33;3.42;;;3.12;;
50733;SDS011;36701;51.798;19.474;2022-09-09T13:38:13;3.85;;;2.85;;
50733;SDS011;36701;51.798;19.474;2022-09-09T13:40:51;6.87;;;3.50;;
50733;SDS011;36701;51.798;19.474;2022-09-09T13:43:23;3.30;;;2.97;;
50733;SDS011;36701;51.798;19.474;2022-09-09T13:45:52;5.97;;;2.90;;
50733;SDS011;36701;51.798;19.474;2022-09-09T13:48:21;4.40;;;2.53;;
50733;SDS011;36701;51.798;19.474;2022-09-09T13:50:54;3.67;;;2.72;;
50733;SDS011;36701;51.798;19.474;2022-09-09T13:53:22;4.05;;;2.75;;
50733;SDS011;36701;51.798;19.474;2022-09-09T13:55:48;3.22;;;2.87;;
50733;SDS011;36701;51.798;19.474;2022-09-09T13:58:16;7.15;;;3.25;;
50733;SDS011;36701;51.798;19.474;2022-09-09T14:00:49;2.80;;;2.60;;
50733;SDS011;36701;51.798;19.474;2022-09-09T14:03:15;3.53;;;3.10;;
50733;SDS011;36701;51.798;19.474;2022-09-09T14:05:42;4.47;;;2.72;;
50733;SDS011;36701;51.798;19.474;2022-09-09T14:08:15;3.35;;;3.00;;
50733;SDS011;36701;51.798;19.474;2022-09-09T14:10:48;3.10;;;2.80;;
50733;SDS011;36701;51.798;19.474;2022-09-09T14:13:15;5.32;;;2.12;;
50733;SDS011;36701;51.798;19.474;2022-09-09T14:15:41;2.58;;;2.47;;
50733;SDS011;36701;51.798;19.474;2022-09-09T14:18:09;4.47;;;2.50;;
50733;SDS011;36701;51.798;19.474;2022-09-09T14:20:38;3.42;;;2.75;;
50733;SDS011;36701;51.798;19.474;2022-09-09T14:23:04;5.18;;;2.62;;
50733;SDS011;36701;51.798;19.474;2022-09-09T14:25:31;6.50;;;2.62;;
50733;SDS011;36701;51.798;19.474;2022-09-09T14:27:57;2.40;;;2.20;;
50733;SDS011;36701;51.798;19.474;2022-09-09T14:30:23;5.90;;;2.22;;
50733;SDS011;36701;51.798;19.474;2022-09-09T14:32:50;2.28;;;2.08;;
50733;SDS011;36701;51.798;19.474;2022-09-09T14:35:21;3.50;;;2.40;;
50733;SDS011;36701;51.798;19.474;2022-09-09T14:37:48;2.22;;;2.12;;
50733;SDS011;36701;51.798;19.474;2022-09-09T14:40:14;4.75;;;2.05;;
50733;SDS011;36701;51.798;19.474;2022-09-09T14:42:41;3.72;;;2.30;;
50733;SDS011;36701;51.798;19.474;2022-09-09T14:45:07;9.25;;;3.30;;
50733;SDS011;36701;51.798;19.474;2022-09-09T14:47:34;2.50;;;2.30;;
50733;SDS011;36701;51.798;19.474;2022-09-09T14:50:00;2.87;;;2.53;;
50733;SDS011;36701;51.798;19.474;2022-09-09T14:52:29;2.42;;;2.22;;
50733;SDS011;36701;51.798;19.474;2022-09-09T14:54:56;3.83;;;2.62;;
50733;SDS011;36701;51.798;19.474;2022-09-09T14:57:23;2.67;;;2.30;;
50733;SDS011;36701;51.798;19.474;2022-09-09T14:59:49;4.80;;;2.40;;
50733;SDS011;36701;51.798;19.474;2022-09-09T15:02:16;3.75;;;2.20;;
50733;SDS011;36701;51.798;19.474;2022-09-09T15:04:43;2.70;;;2.50;;
50733;SDS011;36701;51.798;19.474;2022-09-09T15:07:09;2.85;;;2.60;;
50733;SDS011;36701;51.798;19.474;2022-09-09T15:09:36;5.03;;;2.70;;
50733;SDS011;36701;51.798;19.474;2022-09-09T15:12:03;3.20;;;2.62;;
50733;SDS011;36701;51.798;19.474;2022-09-09T15:14:30;2.92;;;2.45;;
50733;SDS011;36701;51.798;19.474;2022-09-09T15:16:56;7.20;;;2.92;;
50733;SDS011;36701;51.798;19.474;2022-09-09T15:19:23;3.20;;;2.60;;
50733;SDS011;36701;51.798;19.474;2022-09-09T15:21:49;2.55;;;2.40;;
50733;SDS011;36701;51.798;19.474;2022-09-09T15:24:16;2.97;;;2.67;;
50733;SDS011;36701;51.798;19.474;2022-09-09T15:26:42;5.47;;;2.70;;
50733;SDS011;36701;51.798;19.474;2022-09-09T15:29:08;4.60;;;2.90;;
50733;SDS011;36701;51.798;19.474;2022-09-09T15:31:35;2.67;;;2.47;;
50733;SDS011;36701;51.798;19.474;2022-09-09T15:34:03;3.85;;;2.60;;
50733;SDS011;36701;51.798;19.474;2022-09-09T15:36:32;4.55;;;3.00;;
50733;SDS011;36701;51.798;19.474;2022-09-09T15:39:00;2.97;;;2.75;;
50733;SDS011;36701;51.798;19.474;2022-09-09T15:41:28;3.10;;;2.37;;
50733;SDS011;36701;51.798;19.474;2022-09-09T15:43:57;3.53;;;2.95;;
50733;SDS011;36701;51.798;19.474;2022-09-09T15:51:39;2.80;;;2.55;;
50733;SDS011;36701;51.798;19.474;2022-09-09T15:54:09;3.55;;;3.25;;
50733;SDS011;36701;51.798;19.474;2022-09-09T15:56:37;2.35;;;2.15;;
50733;SDS011;36701;51.798;19.474;2022-09-09T15:59:04;3.20;;;2.90;;
50733;SDS011;36701;51.798;19.474;2022-09-09T16:01:30;3.60;;;2.67;;
50733;SDS011;36701;51.798;19.474;2022-09-09T16:03:58;5.28;;;3.10;;
50733;SDS011;36701;51.798;19.474;2022-09-09T16:06:26;3.20;;;2.87;;
50733;SDS011;36701;51.798;19.474;2022-09-09T16:08:54;5.00;;;3.80;;
50733;SDS011;36701;51.798;19.474;2022-09-09T16:11:23;5.97;;;3.37;;
50733;SDS011;36701;51.798;19.474;2022-09-09T16:13:55;6.30;;;3.45;;
50733;SDS011;36701;51.798;19.474;2022-09-09T16:16:23;6.82;;;3.00;;
50733;SDS011;36701;51.798;19.474;2022-09-09T16:18:52;3.75;;;3.05;;
50733;SDS011;36701;51.798;19.474;2022-09-09T16:21:22;8.43;;;3.47;;
50733;SDS011;36701;51.798;19.474;2022-09-09T16:23:50;6.50;;;3.10;;
50733;SDS011;36701;51.798;19.474;2022-09-09T16:26:19;4.22;;;3.20;;
50733;SDS011;36701;51.798;19.474;2022-09-09T16:28:46;4.65;;;3.67;;
50733;SDS011;36701;51.798;19.474;2022-09-09T16:31:14;7.68;;;3.87;;
50733;SDS011;36701;51.798;19.474;2022-09-09T16:33:43;4.57;;;3.15;;
50733;SDS011;36701;51.798;19.474;2022-09-09T16:36:11;5.72;;;4.53;;
50733;SDS011;36701;51.798;19.474;2022-09-09T16:38:40;4.57;;;4.18;;
50733;SDS011;36701;51.798;19.474;2022-09-09T16:41:07;4.12;;;3.72;;
50733;SDS011;36701;51.798;19.474;2022-09-09T16:43:36;4.47;;;4.07;;
50733;SDS011;36701;51.798;19.474;2022-09-09T16:46:03;7.15;;;3.60;;
50733;SDS011;36701;51.798;19.474;2022-09-09T16:48:38;10.20;;;4.50;;
50733;SDS011;36701;51.798;19.474;2022-09-09T16:51:15;6.45;;;3.47;;
50733;SDS011;36701;51.798;19.474;2022-09-09T16:53:46;5.65;;;4.95;;
50733;SDS011;36701;51.798;19.474;2022-09-09T16:56:17;6.87;;;4.70;;
50733;SDS011;36701;51.798;19.474;2022-09-09T16:58:53;7.72;;;4.00;;
50733;SDS011;36701;51.798;19.474;2022-09-09T17:01:30;7.15;;;4.40;;
50733;SDS011;36701;51.798;19.474;2022-09-09T17:04:00;6.87;;;4.62;;
50733;SDS011;36701;51.798;19.474;2022-09-09T17:06:28;10.48;;;5.18;;